Terminal Aerodrome Forecast
Issued by NWS Chicago, IL

Home | Current Version | Previous Version | Text Only | Print | Product List | Glossary On
Versions: 1 2 3 4 5 6 7 8 9 10 11 12 13 14 15 16 17 18 19 20 21 22 23 24 25 26 27 28 29 30 31
123
FTUS43 KLOT 011726
TAFRFD
TAF
KRFD 011726Z 0118/0218 30012G21KT 5SM -RA BR VCSH OVC010
     FM011900 31020G30KT 5SM -RASN BR SCT008 OVC012
      TEMPO 0119/0122 BKN008
     FM012200 31020G30KT 6SM -SHSN BR SCT008 OVC015
     FM020100 31016G25KT P6SM BKN025
     FM020500 31010KT P6SM BKN035
     FM021400 26008KT P6SM OVC035 PROB30 0214/0218 -SHSN OVC025=

USA.gov is the U.S. government's official web portal to all federal, state and local government web resources and services.